sensor_id;sensor_type;location;lat;lon;timestamp;pressure;altitude;pressure_sealevel;temperature;humidity
12785;BME280;6456;42.680;23.260;2023-10-08T00:02:15;95101.44;;;15.60;46.71
12785;BME280;6456;42.680;23.260;2023-10-08T00:04:48;95094.88;;;15.63;46.10
12785;BME280;6456;42.680;23.260;2023-10-08T00:07:17;95090.00;;;15.60;45.45
12785;BME280;6456;42.680;23.260;2023-10-08T00:09:47;95094.03;;;15.74;45.34
12785;BME280;6456;42.680;23.260;2023-10-08T00:12:16;95076.50;;;15.61;45.59
12785;BME280;6456;42.680;23.260;2023-10-08T00:14:46;95075.59;;;15.67;45.67
12785;BME280;6456;42.680;23.260;2023-10-08T00:17:15;95059.78;;;15.61;45.61
12785;BME280;6456;42.680;23.260;2023-10-08T00:19:43;95067.97;;;15.71;46.04
12785;BME280;6456;42.680;23.260;2023-10-08T00:22:10;94994.31;;;15.26;46.10
12785;BME280;6456;42.680;23.260;2023-10-08T00:24:39;95079.34;;;15.94;46.34
12785;BME280;6456;42.680;23.260;2023-10-08T00:27:07;95035.09;;;15.72;46.29
12785;BME280;6456;42.680;23.260;2023-10-08T00:29:34;95019.78;;;15.62;46.51
12785;BME280;6456;42.680;23.260;2023-10-08T00:32:06;95063.66;;;15.93;46.93
12785;BME280;6456;42.680;23.260;2023-10-08T00:34:39;95050.28;;;15.88;47.44
12785;BME280;6456;42.680;23.260;2023-10-08T00:37:10;95054.66;;;15.94;47.57
12785;BME280;6456;42.680;23.260;2023-10-08T00:39:40;95042.44;;;15.93;47.54
12785;BME280;6456;42.680;23.260;2023-10-08T00:42:07;95059.69;;;16.07;47.70
12785;BME280;6456;42.680;23.260;2023-10-08T00:44:35;95035.84;;;15.95;47.80
12785;BME280;6456;42.680;23.260;2023-10-08T00:47:15;95043.09;;;16.00;47.91
12785;BME280;6456;42.680;23.260;2023-10-08T00:49:46;95065.25;;;16.06;48.23
12785;BME280;6456;42.680;23.260;2023-10-08T00:52:20;95067.00;;;16.00;49.03
12785;BME280;6456;42.680;23.260;2023-10-08T00:54:55;95051.94;;;15.77;50.35
12785;BME280;6456;42.680;23.260;2023-10-08T00:57:34;95055.28;;;15.61;50.99
12785;BME280;6456;42.680;23.260;2023-10-08T01:00:08;95036.03;;;15.43;51.95
12785;BME280;6456;42.680;23.260;2023-10-08T01:02:43;95000.41;;;15.04;52.57
12785;BME280;6456;42.680;23.260;2023-10-08T01:05:15;95040.19;;;15.27;53.15
12785;BME280;6456;42.680;23.260;2023-10-08T01:07:45;95046.63;;;15.19;53.93
12785;BME280;6456;42.680;23.260;2023-10-08T01:10:14;95045.72;;;15.14;54.23
12785;BME280;6456;42.680;23.260;2023-10-08T01:12:45;94991.53;;;14.75;54.86
12785;BME280;6456;42.680;23.260;2023-10-08T01:15:21;95032.31;;;14.86;55.56
12785;BME280;6456;42.680;23.260;2023-10-08T01:17:56;95041.88;;;14.87;56.40
12785;BME280;6456;42.680;23.260;2023-10-08T01:20:27;94992.41;;;14.46;57.01
12785;BME280;6456;42.680;23.260;2023-10-08T01:23:04;95012.69;;;14.52;57.73
12785;BME280;6456;42.680;23.260;2023-10-08T01:25:38;95045.53;;;14.62;58.06
12785;BME280;6456;42.680;23.260;2023-10-08T01:28:05;94978.47;;;14.09;58.44
12785;BME280;6456;42.680;23.260;2023-10-08T01:30:41;95049.50;;;14.42;58.55
12785;BME280;6456;42.680;23.260;2023-10-08T01:33:12;95047.41;;;14.32;59.50
12785;BME280;6456;42.680;23.260;2023-10-08T01:35:41;95037.69;;;14.08;59.92
12785;BME280;6456;42.680;23.260;2023-10-08T01:38:09;95040.72;;;14.11;60.16
12785;BME280;6456;42.680;23.260;2023-10-08T01:40:40;95047.69;;;14.06;60.62
12785;BME280;6456;42.680;23.260;2023-10-08T01:43:09;95016.84;;;13.70;61.14
12785;BME280;6456;42.680;23.260;2023-10-08T01:45:39;95050.16;;;13.89;61.39
12785;BME280;6456;42.680;23.260;2023-10-08T01:48:08;95000.97;;;13.52;61.52
12785;BME280;6456;42.680;23.260;2023-10-08T01:50:36;95054.00;;;13.75;61.43
12785;BME280;6456;42.680;23.260;2023-10-08T01:53:04;94997.31;;;13.35;61.78
12785;BME280;6456;42.680;23.260;2023-10-08T01:55:35;95045.00;;;13.58;62.10
12785;BME280;6456;42.680;23.260;2023-10-08T01:58:15;95033.94;;;13.49;62.51
12785;BME280;6456;42.680;23.260;2023-10-08T02:00:43;95055.44;;;13.53;63.13
12785;BME280;6456;42.680;23.260;2023-10-08T02:03:11;95052.19;;;13.33;63.81
12785;BME280;6456;42.680;23.260;2023-10-08T02:05:41;95056.47;;;13.34;63.88
12785;BME280;6456;42.680;23.260;2023-10-08T02:08:09;95044.34;;;13.26;64.64
12785;BME280;6456;42.680;23.260;2023-10-08T02:10:39;95040.56;;;13.16;64.82
12785;BME280;6456;42.680;23.260;2023-10-08T02:13:07;95039.25;;;13.07;65.11
12785;BME280;6456;42.680;23.260;2023-10-08T02:15:35;95042.88;;;13.06;65.15
12785;BME280;6456;42.680;23.260;2023-10-08T02:18:06;95048.34;;;13.11;65.66
12785;BME280;6456;42.680;23.260;2023-10-08T02:20:34;95040.06;;;13.01;66.04
12785;BME280;6456;42.680;23.260;2023-10-08T02:23:01;95044.94;;;13.04;66.16
12785;BME280;6456;42.680;23.260;2023-10-08T02:25:30;95036.09;;;12.92;66.48
12785;BME280;6456;42.680;23.260;2023-10-08T02:28:03;95003.69;;;12.60;66.83
12785;BME280;6456;42.680;23.260;2023-10-08T02:30:30;95025.47;;;12.73;66.95
12785;BME280;6456;42.680;23.260;2023-10-08T02:32:57;95031.09;;;12.83;66.74
12785;BME280;6456;42.680;23.260;2023-10-08T02:35:24;95036.97;;;12.85;67.17
12785;BME280;6456;42.680;23.260;2023-10-08T02:37:52;95021.09;;;12.67;67.02
12785;BME280;6456;42.680;23.260;2023-10-08T02:40:20;95021.25;;;12.72;67.25
12785;BME280;6456;42.680;23.260;2023-10-08T02:42:52;95039.88;;;12.77;67.61
12785;BME280;6456;42.680;23.260;2023-10-08T02:45:25;95038.25;;;12.76;67.59
12785;BME280;6456;42.680;23.260;2023-10-08T02:47:52;95042.63;;;12.64;68.18
12785;BME280;6456;42.680;23.260;2023-10-08T02:50:21;95001.88;;;12.29;68.76
12785;BME280;6456;42.680;23.260;2023-10-08T02:52:48;95037.00;;;12.54;69.02
12785;BME280;6456;42.680;23.260;2023-10-08T02:55:16;95035.47;;;12.40;69.04
12785;BME280;6456;42.680;23.260;2023-10-08T02:57:54;95036.94;;;12.36;69.26
12785;BME280;6456;42.680;23.260;2023-10-08T03:00:21;95047.44;;;12.43;70.08
12785;BME280;6456;42.680;23.260;2023-10-08T03:02:56;95054.34;;;12.44;70.21
12785;BME280;6456;42.680;23.260;2023-10-08T03:05:26;94993.28;;;12.09;69.49
12785;BME280;6456;42.680;23.260;2023-10-08T03:08:01;95012.06;;;12.19;69.06
12785;BME280;6456;42.680;23.260;2023-10-08T03:10:28;95007.97;;;12.23;68.46
12785;BME280;6456;42.680;23.260;2023-10-08T03:12:59;95043.78;;;12.44;68.69
12785;BME280;6456;42.680;23.260;2023-10-08T03:15:29;95011.84;;;12.27;69.26
12785;BME280;6456;42.680;23.260;2023-10-08T03:18:06;95039.91;;;12.46;70.23
12785;BME280;6456;42.680;23.260;2023-10-08T03:20:36;95026.78;;;12.40;70.73
12785;BME280;6456;42.680;23.260;2023-10-08T03:23:09;95037.03;;;12.48;70.98
12785;BME280;6456;42.680;23.260;2023-10-08T03:25:50;95018.03;;;12.39;70.78
12785;BME280;6456;42.680;23.260;2023-10-08T03:28:22;95031.34;;;12.51;71.12
12785;BME280;6456;42.680;23.260;2023-10-08T03:30:51;94988.69;;;12.22;71.44
12785;BME280;6456;42.680;23.260;2023-10-08T03:33:30;95038.66;;;12.49;71.25
12785;BME280;6456;42.680;23.260;2023-10-08T03:36:00;95026.06;;;12.51;71.10
12785;BME280;6456;42.680;23.260;2023-10-08T03:38:35;95031.19;;;12.46;71.65
12785;BME280;6456;42.680;23.260;2023-10-08T03:41:24;94988.69;;;12.22;71.63
12785;BME280;6456;42.680;23.260;2023-10-08T03:43:53;95020.25;;;12.42;71.75
12785;BME280;6456;42.680;23.260;2023-10-08T03:46:27;94997.66;;;12.21;72.03
12785;BME280;6456;42.680;23.260;2023-10-08T03:48:56;95013.34;;;12.41;72.00
12785;BME280;6456;42.680;23.260;2023-10-08T03:51:23;95019.22;;;12.43;71.87
12785;BME280;6456;42.680;23.260;2023-10-08T03:53:53;95024.31;;;12.38;72.33
12785;BME280;6456;42.680;23.260;2023-10-08T03:56:41;94999.22;;;12.29;72.85
12785;BME280;6456;42.680;23.260;2023-10-08T03:59:11;94998.00;;;12.32;73.33
12785;BME280;6456;42.680;23.260;2023-10-08T04:01:41;94939.41;;;11.92;73.39
12785;BME280;6456;42.680;23.260;2023-10-08T04:04:25;94968.53;;;12.03;73.82
12785;BME280;6456;42.680;23.260;2023-10-08T04:07:12;94941.19;;;11.98;73.93
12785;BME280;6456;42.680;23.260;2023-10-08T04:09:53;94991.34;;;12.22;73.51
12785;BME280;6456;42.680;23.260;2023-10-08T04:12:31;94980.41;;;12.19;73.24
12785;BME280;6456;42.680;23.260;2023-10-08T04:15:00;94997.59;;;12.28;73.27
12785;BME280;6456;42.680;23.260;2023-10-08T04:17:27;94999.66;;;12.26;73.29
12785;BME280;6456;42.680;23.260;2023-10-08T04:19:56;94993.63;;;12.12;73.65
12785;BME280;6456;42.680;23.260;2023-10-08T04:22:24;95002.94;;;12.15;73.89
12785;BME280;6456;42.680;23.260;2023-10-08T04:24:50;94995.91;;;12.09;74.20
12785;BME280;6456;42.680;23.260;2023-10-08T04:27:19;94999.13;;;12.11;74.72
12785;BME280;6456;42.680;23.260;2023-10-08T04:29:47;95004.81;;;12.08;75.37
12785;BME280;6456;42.680;23.260;2023-10-08T04:32:15;95010.75;;;12.03;76.10
12785;BME280;6456;42.680;23.260;2023-10-08T04:34:50;94997.50;;;12.10;75.98
12785;BME280;6456;42.680;23.260;2023-10-08T04:37:19;95006.81;;;12.12;75.74
12785;BME280;6456;42.680;23.260;2023-10-08T04:39:47;94959.94;;;11.90;75.45
12785;BME280;6456;42.680;23.260;2023-10-08T04:42:23;94968.78;;;11.95;75.42
12785;BME280;6456;42.680;23.260;2023-10-08T04:44:53;95004.53;;;12.22;75.73
12785;BME280;6456;42.680;23.260;2023-10-08T04:47:20;95006.97;;;12.24;75.21
12785;BME280;6456;42.680;23.260;2023-10-08T04:49:57;95020.34;;;12.29;74.75
12785;BME280;6456;42.680;23.260;2023-10-08T04:52:26;95015.88;;;12.30;73.97
12785;BME280;6456;42.680;23.260;2023-10-08T04:54:53;94960.28;;;11.93;73.25
12785;BME280;6456;42.680;23.260;2023-10-08T04:57:22;94986.34;;;12.14;72.56
12785;BME280;6456;42.680;23.260;2023-10-08T04:59:51;94998.47;;;12.22;72.76
12785;BME280;6456;42.680;23.260;2023-10-08T05:02:22;94999.13;;;12.11;73.09
12785;BME280;6456;42.680;23.260;2023-10-08T05:05:00;95016.88;;;12.29;73.14
12785;BME280;6456;42.680;23.260;2023-10-08T05:07:45;95016.72;;;12.23;73.57
12785;BME280;6456;42.680;23.260;2023-10-08T05:10:42;95017.09;;;12.27;73.77
12785;BME280;6456;42.680;23.260;2023-10-08T05:13:26;95022.75;;;12.31;74.07
12785;BME280;6456;42.680;23.260;2023-10-08T05:15:58;95029.22;;;12.35;74.56
12785;BME280;6456;42.680;23.260;2023-10-08T05:18:37;94953.19;;;11.94;75.03
12785;BME280;6456;42.680;23.260;2023-10-08T05:21:23;94978.19;;;12.16;74.87
12785;BME280;6456;42.680;23.260;2023-10-08T05:24:07;95006.91;;;12.37;73.78
12785;BME280;6456;42.680;23.260;2023-10-08T05:26:39;95025.88;;;12.52;73.56
12785;BME280;6456;42.680;23.260;2023-10-08T05:29:10;95007.66;;;12.44;74.14
12785;BME280;6456;42.680;23.260;2023-10-08T05:32:16;95033.97;;;12.51;73.71
12785;BME280;6456;42.680;23.260;2023-10-08T05:35:04;95021.50;;;12.40;74.79
12785;BME280;6456;42.680;23.260;2023-10-08T05:37:45;95018.41;;;12.43;75.38
12785;BME280;6456;42.680;23.260;2023-10-08T05:40:19;95032.09;;;12.58;75.08
12785;BME280;6456;42.680;23.260;2023-10-08T05:43:09;94997.13;;;12.38;74.41
12785;BME280;6456;42.680;23.260;2023-10-08T05:45:48;95035.56;;;12.58;75.27
12785;BME280;6456;42.680;23.260;2023-10-08T05:48:39;95020.75;;;12.57;75.74
12785;BME280;6456;42.680;23.260;2023-10-08T05:51:10;95029.00;;;12.67;74.89
12785;BME280;6456;42.680;23.260;2023-10-08T05:53:49;95045.97;;;12.78;74.03
12785;BME280;6456;42.680;23.260;2023-10-08T05:56:22;95047.31;;;12.87;73.51
12785;BME280;6456;42.680;23.260;2023-10-08T05:59:17;95051.53;;;12.95;72.97
12785;BME280;6456;42.680;23.260;2023-10-08T06:01:52;95041.72;;;13.02;72.94
12785;BME280;6456;42.680;23.260;2023-10-08T06:04:31;95052.19;;;13.15;72.68
12785;BME280;6456;42.680;23.260;2023-10-08T06:07:18;95045.19;;;13.20;72.42
12785;BME280;6456;42.680;23.260;2023-10-08T06:09:58;95046.75;;;13.28;71.97
12785;BME280;6456;42.680;23.260;2023-10-08T06:12:40;95032.25;;;13.37;71.11
12785;BME280;6456;42.680;23.260;2023-10-08T06:15:15;95038.81;;;13.53;70.77
12785;BME280;6456;42.680;23.260;2023-10-08T06:17:53;95038.28;;;13.62;70.57
12785;BME280;6456;42.680;23.260;2023-10-08T06:20:24;95029.25;;;13.70;70.85
12785;BME280;6456;42.680;23.260;2023-10-08T06:22:54;95026.06;;;13.79;71.65
12785;BME280;6456;42.680;23.260;2023-10-08T06:25:28;95016.06;;;13.81;71.22
12785;BME280;6456;42.680;23.260;2023-10-08T06:27:58;94998.63;;;13.62;71.20
12785;BME280;6456;42.680;23.260;2023-10-08T06:30:28;95034.19;;;13.96;71.46
12785;BME280;6456;42.680;23.260;2023-10-08T06:32:59;95033.53;;;14.00;72.00
12785;BME280;6456;42.680;23.260;2023-10-08T06:35:26;95010.63;;;13.94;71.55
12785;BME280;6456;42.680;23.260;2023-10-08T06:37:54;94981.81;;;13.86;71.34
12785;BME280;6456;42.680;23.260;2023-10-08T06:40:27;95030.53;;;14.27;70.97
12785;BME280;6456;42.680;23.260;2023-10-08T06:43:10;95009.34;;;14.27;71.05
12785;BME280;6456;42.680;23.260;2023-10-08T06:45:48;95002.28;;;14.39;71.07
12785;BME280;6456;42.680;23.260;2023-10-08T06:48:18;95014.31;;;14.53;70.22
12785;BME280;6456;42.680;23.260;2023-10-08T06:50:47;95021.13;;;14.72;69.43
12785;BME280;6456;42.680;23.260;2023-10-08T06:53:15;95021.13;;;14.84;68.74
12785;BME280;6456;42.680;23.260;2023-10-08T06:55:44;94992.31;;;14.75;68.37
12785;BME280;6456;42.680;23.260;2023-10-08T06:58:15;95016.88;;;15.06;68.80
12785;BME280;6456;42.680;23.260;2023-10-08T07:00:42;95014.59;;;15.09;68.09
12785;BME280;6456;42.680;23.260;2023-10-08T07:03:14;95011.94;;;15.56;54.37
12785;BME280;6456;42.680;23.260;2023-10-08T07:05:43;95012.47;;;16.09;45.00
12785;BME280;6456;42.680;23.260;2023-10-08T07:08:20;95014.97;;;16.44;43.95
12785;BME280;6456;42.680;23.260;2023-10-08T07:10:49;95015.97;;;16.83;42.82
12785;BME280;6456;42.680;23.260;2023-10-08T07:13:18;94998.41;;;16.98;41.71
12785;BME280;6456;42.680;23.260;2023-10-08T07:15:48;95020.34;;;17.27;41.86
12785;BME280;6456;42.680;23.260;2023-10-08T07:18:16;95023.41;;;17.52;40.08
12785;BME280;6456;42.680;23.260;2023-10-08T07:20:51;95015.28;;;17.80;39.78
12785;BME280;6456;42.680;23.260;2023-10-08T07:23:27;95004.88;;;18.01;37.00
12785;BME280;6456;42.680;23.260;2023-10-08T07:25:56;95009.06;;;18.18;35.92
12785;BME280;6456;42.680;23.260;2023-10-08T07:28:28;94994.78;;;18.29;35.25
12785;BME280;6456;42.680;23.260;2023-10-08T07:30:55;94997.22;;;18.31;34.94
12785;BME280;6456;42.680;23.260;2023-10-08T07:33:23;94998.00;;;18.53;34.80
12785;BME280;6456;42.680;23.260;2023-10-08T07:35:51;94981.97;;;18.48;34.54
12785;BME280;6456;42.680;23.260;2023-10-08T07:38:25;94996.59;;;18.77;34.00
12785;BME280;6456;42.680;23.260;2023-10-08T07:40:55;94990.28;;;18.83;33.98
12785;BME280;6456;42.680;23.260;2023-10-08T07:43:22;95001.25;;;18.92;34.57
12785;BME280;6456;42.680;23.260;2023-10-08T07:45:51;94996.31;;;19.05;33.84
12785;BME280;6456;42.680;23.260;2023-10-08T07:48:22;94982.78;;;19.17;33.99
12785;BME280;6456;42.680;23.260;2023-10-08T07:50:55;94959.31;;;19.19;34.21
12785;BME280;6456;42.680;23.260;2023-10-08T07:53:22;94980.56;;;19.41;33.86
12785;BME280;6456;42.680;23.260;2023-10-08T07:55:50;94961.09;;;19.40;33.84
12785;BME280;6456;42.680;23.260;2023-10-08T07:58:18;94975.31;;;19.56;33.23
12785;BME280;6456;42.680;23.260;2023-10-08T08:00:46;94983.38;;;19.66;33.43
12785;BME280;6456;42.680;23.260;2023-10-08T08:03:21;94987.66;;;19.72;33.39
12785;BME280;6456;42.680;23.260;2023-10-08T08:05:48;94982.88;;;19.79;33.86
12785;BME280;6456;42.680;23.260;2023-10-08T08:08:20;94973.38;;;19.98;33.44
12785;BME280;6456;42.680;23.260;2023-10-08T08:10:48;94963.72;;;19.97;32.60
12785;BME280;6456;42.680;23.260;2023-10-08T08:13:24;94961.38;;;20.06;32.00
12785;BME280;6456;42.680;23.260;2023-10-08T08:15:55;94962.19;;;20.11;32.80
12785;BME280;6456;42.680;23.260;2023-10-08T08:18:26;94959.53;;;20.11;32.51
12785;BME280;6456;42.680;23.260;2023-10-08T08:20:59;94974.25;;;20.19;33.03
12785;BME280;6456;42.680;23.260;2023-10-08T08:23:28;94949.44;;;20.28;33.07
12785;BME280;6456;42.680;23.260;2023-10-08T08:25:56;94963.63;;;20.39;32.44
12785;BME280;6456;42.680;23.260;2023-10-08T08:28:37;94947.59;;;20.39;32.35
12785;BME280;6456;42.680;23.260;2023-10-08T08:31:04;94958.56;;;20.58;32.30
12785;BME280;6456;42.680;23.260;2023-10-08T08:33:40;94952.69;;;20.71;31.82
12785;BME280;6456;42.680;23.260;2023-10-08T08:36:22;94944.66;;;20.76;31.95
12785;BME280;6456;42.680;23.260;2023-10-08T08:38:50;94939.03;;;20.82;31.71
12785;BME280;6456;42.680;23.260;2023-10-08T08:41:18;94944.13;;;20.89;31.28
12785;BME280;6456;42.680;23.260;2023-10-08T08:43:50;94971.13;;;20.92;31.44
12785;BME280;6456;42.680;23.260;2023-10-08T08:46:28;94948.38;;;21.05;31.81
12785;BME280;6456;42.680;23.260;2023-10-08T08:49:00;94955.91;;;21.18;31.24
12785;BME280;6456;42.680;23.260;2023-10-08T08:51:29;94940.34;;;21.30;30.87
12785;BME280;6456;42.680;23.260;2023-10-08T08:53:58;94944.63;;;21.36;31.37
12785;BME280;6456;42.680;23.260;2023-10-08T08:56:26;94948.38;;;21.40;30.82
12785;BME280;6456;42.680;23.260;2023-10-08T08:58:55;94926.41;;;21.43;30.83
12785;BME280;6456;42.680;23.260;2023-10-08T09:01:22;94941.16;;;21.36;30.75
12785;BME280;6456;42.680;23.260;2023-10-08T09:03:49;94907.19;;;21.21;30.84
12785;BME280;6456;42.680;23.260;2023-10-08T09:06:23;94921.34;;;21.37;31.57
12785;BME280;6456;42.680;23.260;2023-10-08T09:08:50;94936.84;;;21.45;30.83
12785;BME280;6456;42.680;23.260;2023-10-08T09:11:17;94934.16;;;21.50;31.15
12785;BME280;6456;42.680;23.260;2023-10-08T09:13:44;94897.50;;;21.40;31.47
12785;BME280;6456;42.680;23.260;2023-10-08T09:16:12;94921.00;;;21.63;30.72
12785;BME280;6456;42.680;23.260;2023-10-08T09:18:41;94926.53;;;21.77;31.06
12785;BME280;6456;42.680;23.260;2023-10-08T09:21:10;94908.09;;;21.70;30.65
12785;BME280;6456;42.680;23.260;2023-10-08T09:23:41;94919.84;;;21.80;30.68
12785;BME280;6456;42.680;23.260;2023-10-08T09:26:10;94910.75;;;21.86;30.90
12785;BME280;6456;42.680;23.260;2023-10-08T09:28:39;94931.13;;;21.87;30.18
12785;BME280;6456;42.680;23.260;2023-10-08T09:31:10;94921.75;;;21.79;30.97
12785;BME280;6456;42.680;23.260;2023-10-08T09:33:38;94912.13;;;21.68;31.71
12785;BME280;6456;42.680;23.260;2023-10-08T09:36:06;94917.72;;;21.87;31.35
12785;BME280;6456;42.680;23.260;2023-10-08T09:38:36;94911.56;;;21.86;30.48
12785;BME280;6456;42.680;23.260;2023-10-08T09:41:05;94924.06;;;22.01;30.91
12785;BME280;6456;42.680;23.260;2023-10-08T09:43:34;94914.38;;;22.05;30.74
12785;BME280;6456;42.680;23.260;2023-10-08T09:46:08;94909.78;;;22.15;30.21
12785;BME280;6456;42.680;23.260;2023-10-08T09:48:37;94906.25;;;22.20;30.43
12785;BME280;6456;42.680;23.260;2023-10-08T09:51:09;94905.22;;;22.16;30.16
12785;BME280;6456;42.680;23.260;2023-10-08T09:53:43;94907.41;;;22.09;30.31
12785;BME280;6456;42.680;23.260;2023-10-08T09:56:15;94911.19;;;22.03;30.20
12785;BME280;6456;42.680;23.260;2023-10-08T09:58:43;94894.91;;;21.94;30.50
12785;BME280;6456;42.680;23.260;2023-10-08T10:01:11;94898.38;;;21.85;30.58
12785;BME280;6456;42.680;23.260;2023-10-08T10:03:39;94896.28;;;21.82;31.02
12785;BME280;6456;42.680;23.260;2023-10-08T10:06:18;94898.97;;;21.82;30.96
12785;BME280;6456;42.680;23.260;2023-10-08T10:08:47;94903.25;;;21.78;31.53
12785;BME280;6456;42.680;23.260;2023-10-08T10:11:16;94893.66;;;21.71;31.76
12785;BME280;6456;42.680;23.260;2023-10-08T10:13:44;94874.13;;;21.61;32.39
12785;BME280;6456;42.680;23.260;2023-10-08T10:16:16;94873.25;;;21.76;31.60
12785;BME280;6456;42.680;23.260;2023-10-08T10:18:44;94879.66;;;21.80;31.61
12785;BME280;6456;42.680;23.260;2023-10-08T10:21:26;94902.31;;;22.07;30.69
12785;BME280;6456;42.680;23.260;2023-10-08T10:23:55;94874.91;;;22.20;30.22
12785;BME280;6456;42.680;23.260;2023-10-08T10:26:25;94873.47;;;22.33;30.04
12785;BME280;6456;42.680;23.260;2023-10-08T10:29:20;94871.31;;;22.35;30.79
12785;BME280;6456;42.680;23.260;2023-10-08T10:31:49;94903.63;;;22.54;30.37
12785;BME280;6456;42.680;23.260;2023-10-08T10:34:20;94861.50;;;22.59;30.56
12785;BME280;6456;42.680;23.260;2023-10-08T10:36:49;94848.13;;;22.54;31.14
12785;BME280;6456;42.680;23.260;2023-10-08T10:39:21;94873.00;;;22.60;31.07
12785;BME280;6456;42.680;23.260;2023-10-08T10:41:55;94844.06;;;22.62;31.44
12785;BME280;6456;42.680;23.260;2023-10-08T10:44:27;94862.25;;;22.65;31.50
12785;BME280;6456;42.680;23.260;2023-10-08T10:46:55;94857.72;;;22.60;31.47
12785;BME280;6456;42.680;23.260;2023-10-08T10:49:48;94854.25;;;22.55;32.04
12785;BME280;6456;42.680;23.260;2023-10-08T10:52:19;94849.47;;;22.52;32.12
12785;BME280;6456;42.680;23.260;2023-10-08T10:55:01;94850.88;;;22.44;32.44
12785;BME280;6456;42.680;23.260;2023-10-08T10:57:48;94833.47;;;22.42;32.58
12785;BME280;6456;42.680;23.260;2023-10-08T11:00:22;94847.91;;;22.46;32.57
12785;BME280;6456;42.680;23.260;2023-10-08T11:03:15;94806.88;;;22.45;32.09
12785;BME280;6456;42.680;23.260;2023-10-08T11:05:57;94820.69;;;22.62;32.25
12785;BME280;6456;42.680;23.260;2023-10-08T11:08:31;94816.28;;;22.76;32.27
12785;BME280;6456;42.680;23.260;2023-10-08T11:11:01;94818.69;;;22.78;32.06
12785;BME280;6456;42.680;23.260;2023-10-08T11:13:33;94805.00;;;22.79;32.29
12785;BME280;6456;42.680;23.260;2023-10-08T11:16:05;94811.94;;;22.80;32.46
12785;BME280;6456;42.680;23.260;2023-10-08T11:18:33;94800.59;;;22.88;32.31
12785;BME280;6456;42.680;23.260;2023-10-08T11:21:07;94786.06;;;22.94;32.17
12785;BME280;6456;42.680;23.260;2023-10-08T11:23:48;94778.06;;;23.13;31.76
12785;BME280;6456;42.680;23.260;2023-10-08T11:26:21;94788.38;;;23.25;32.55
12785;BME280;6456;42.680;23.260;2023-10-08T11:28:59;94789.81;;;23.41;33.25
12785;BME280;6456;42.680;23.260;2023-10-08T11:31:28;94811.56;;;23.63;32.73
12785;BME280;6456;42.680;23.260;2023-10-08T11:33:59;94777.22;;;23.60;32.16
12785;BME280;6456;42.680;23.260;2023-10-08T11:36:28;94776.78;;;23.72;32.27
12785;BME280;6456;42.680;23.260;2023-10-08T11:38:56;94772.56;;;23.66;31.96
12785;BME280;6456;42.680;23.260;2023-10-08T11:41:28;94776.44;;;23.78;31.67
12785;BME280;6456;42.680;23.260;2023-10-08T11:43:57;94780.22;;;23.77;32.24
12785;BME280;6456;42.680;23.260;2023-10-08T11:46:26;94815.66;;;23.79;32.08
12785;BME280;6456;42.680;23.260;2023-10-08T11:48:54;94804.06;;;23.60;32.56
12785;BME280;6456;42.680;23.260;2023-10-08T11:51:24;94793.84;;;23.62;32.73
12785;BME280;6456;42.680;23.260;2023-10-08T11:53:51;94812.78;;;23.52;32.79
12785;BME280;6456;42.680;23.260;2023-10-08T11:56:19;94796.69;;;23.52;32.93
12785;BME280;6456;42.680;23.260;2023-10-08T11:58:49;94755.94;;;23.21;32.53
12785;BME280;6456;42.680;23.260;2023-10-08T12:01:18;94794.13;;;23.42;32.52
12785;BME280;6456;42.680;23.260;2023-10-08T12:03:45;94797.66;;;23.37;33.23
12785;BME280;6456;42.680;23.260;2023-10-08T12:06:15;94783.94;;;23.39;33.36
12785;BME280;6456;42.680;23.260;2023-10-08T12:08:44;94793.53;;;23.45;32.93
12785;BME280;6456;42.680;23.260;2023-10-08T12:11:14;94776.34;;;23.46;32.51
12785;BME280;6456;42.680;23.260;2023-10-08T12:13:42;94793.13;;;23.75;32.33
12785;BME280;6456;42.680;23.260;2023-10-08T12:16:16;94769.91;;;23.84;31.49
12785;BME280;6456;42.680;23.260;2023-10-08T12:18:49;94798.84;;;24.06;31.71
12785;BME280;6456;42.680;23.260;2023-10-08T12:21:19;94807.31;;;24.18;31.99
12785;BME280;6456;42.680;23.260;2023-10-08T12:23:47;94799.03;;;24.14;31.80
12785;BME280;6456;42.680;23.260;2023-10-08T12:26:15;94825.69;;;24.11;31.85
12785;BME280;6456;42.680;23.260;2023-10-08T12:28:44;94803.16;;;24.07;32.22
12785;BME280;6456;42.680;23.260;2023-10-08T12:31:13;94738.09;;;23.54;32.39
12785;BME280;6456;42.680;23.260;2023-10-08T12:33:41;94827.19;;;23.98;32.59
12785;BME280;6456;42.680;23.260;2023-10-08T12:36:11;94807.38;;;23.94;32.21
12785;BME280;6456;42.680;23.260;2023-10-08T12:38:39;94816.00;;;23.91;32.19
12785;BME280;6456;42.680;23.260;2023-10-08T12:41:06;94766.75;;;23.58;32.35
12785;BME280;6456;42.680;23.260;2023-10-08T12:43:45;94752.41;;;23.49;32.53
12785;BME280;6456;42.680;23.260;2023-10-08T12:46:18;94795.31;;;23.73;32.75
12785;BME280;6456;42.680;23.260;2023-10-08T12:48:49;94792.25;;;23.61;33.18
12785;BME280;6456;42.680;23.260;2023-10-08T12:51:20;94752.59;;;23.53;33.25
12785;BME280;6456;42.680;23.260;2023-10-08T12:53:50;94783.81;;;23.68;33.39
12785;BME280;6456;42.680;23.260;2023-10-08T12:56:24;94729.94;;;23.40;33.44
12785;BME280;6456;42.680;23.260;2023-10-08T12:58:57;94765.00;;;23.68;33.53
12785;BME280;6456;42.680;23.260;2023-10-08T13:01:24;94783.41;;;23.79;32.90
12785;BME280;6456;42.680;23.260;2023-10-08T13:03:54;94781.00;;;23.96;32.84
12785;BME280;6456;42.680;23.260;2023-10-08T13:06:28;94773.94;;;24.00;32.74
12785;BME280;6456;42.680;23.260;2023-10-08T13:08:55;94752.97;;;24.02;32.96
12785;BME280;6456;42.680;23.260;2023-10-08T13:11:24;94772.78;;;24.06;32.09
12785;BME280;6456;42.680;23.260;2023-10-08T13:13:52;94759.19;;;23.98;32.49
12785;BME280;6456;42.680;23.260;2023-10-08T13:16:24;94741.56;;;23.73;32.85
12785;BME280;6456;42.680;23.260;2023-10-08T13:18:52;94782.69;;;23.92;32.29
12785;BME280;6456;42.680;23.260;2023-10-08T13:21:22;94763.56;;;23.94;32.87
12785;BME280;6456;42.680;23.260;2023-10-08T13:23:51;94704.53;;;23.70;32.41
12785;BME280;6456;42.680;23.260;2023-10-08T13:26:19;94707.28;;;23.65;32.23